IX ULTRAMARATON BIESZCZADZKI - 14 KM
IX ULTRAMARATON BIESZCZADZKI
Organizator : Fundacja Bieg Rzeźnika
Data : 2021-10-09
Miejsce : Cisna
Dystans : 14 km
Zgłoszonych : 315
Wystartowało : 288
Nie ukończyło : 0
Ukończyło : 288
Na trasie : 0
Pełne wyniki :
Uproszczone :
Klasyfikacje w punktach pomiarowych: Start | Meta
Klasyfikacje wg kategorii: Wszyscy | K Open | M Open | K18 | M18 | K20 | M20 | K30 | M30 | K40 | M40 | K50 | M50 | K60 | M60
Klasyfikacja wg czasu brutto. Wyniki nieoficjalne !!!
MscZawodnikNumerKlubMiejscowośćKrajKategoriaMkatK/MCzas startuCzas
netto
14km
Czas
brutto
14km
Różn.Tempo
min/km
Tempo
km/h
       
1BOLECHOWSKA Dominika 3301ALPIN SPORT HOKA ONE ONE TEAMRABKA-ZDRÓJK401K 100:00:0201:28:00.0501:28:02.70 6:179,5
2MALECKA-LEŃ Patrycja 3150STAJNIA BALONARZESZÓWK402K 200:00:0401:30:17.4001:30:22.10+00:02:196:269,3
3CIECIOROWSKA Aleksandra 3030KOŃSKIEK201K 300:00:1601:30:28.5001:30:45.45+00:02:426:279,3
4MATŁOSZ Jolanta 3156STRZYŻÓWK301K 400:00:0501:32:34.7001:32:39.90+00:04:376:369,1
5SZTORC Joanna 3239KRAKÓWK302K 500:00:0301:33:15.0501:33:18.05+00:05:156:399,0
6WALANIA-BRONHARD Kinga 3314GŁOGOVIA GŁOGÓW MAŁOPOLSKIGŁOGÓW MAŁOPOLSKIK303K 600:00:0301:33:20.1001:33:23.90+00:05:216:409,0
7BUSZ Monika 3023RZESZÓWK304K 700:00:0601:34:14.9501:34:21.80+00:06:196:438,9
8WOJCIESZAK Katarzyna 3262ŚCO BIEGAKIELCEK403K 800:00:2801:35:55.1001:36:23.40+00:08:206:518,8
9MUDŹ Anna 3290CENTRUM SZKOLENIA MARYNARKI WOJENNEJUSTKA - PRZEWŁOKAK202K 900:00:0701:36:22.6501:36:29.95+00:08:276:538,7
10GRZECHYNKA Agnieszka 3073GO PUBLICKRAKÓWK305K 1000:00:0301:36:37.1501:36:40.95+00:08:386:548,7
11GRABARCZYK Ilona 3069LESZNOK404K 1100:00:0801:39:41.6001:39:50.05+00:11:477:078,4
12PĘKALA Kamila 3159POZNAŃK203K 1200:00:1801:40:21.7001:40:40.20+00:12:377:108,4
13POTERA Krystyna 3195ŁAŃCUTK306K 1300:00:0401:40:47.0001:40:51.85+00:12:497:118,3
14WÓJCIK Sylwia 3266NIE WIEM, NIE OBCHODZI MNIE TOKRAKÓWK204K 1400:00:3301:40:27.5001:41:00.55+00:12:577:108,4
15RZESZUTEK Wiktoria 3216GDAŃSKK205K 1500:00:0501:40:59.6501:41:04.70+00:13:027:128,3
16MALISZEWSKA Justyna 3151LUBLINK206K 1600:00:3001:41:15.3001:41:45.30+00:13:427:138,3
17TADLA Izabela 3248LUBLINK307K 1700:00:1001:41:47.1501:41:58.00+00:13:557:168,3
18WITEK Gabriela 3259DĘBNOK207K 1800:00:0501:42:37.1001:42:43.05+00:14:407:198,2
19DUDEK Kamila 3041POWER TRAININGPIASECZNOK308K 1900:00:1701:42:38.7001:42:56.60+00:14:537:198,2
20BOCHENEK Sylwia 3014STALOWOWOLSKI KLUB BIEGACZARUDNIK NAD SANEMK309K 2000:00:2701:43:01.5001:43:28.70+00:15:267:218,2
21HOŁOWATY Renia 3080BIESZCZADZKA WATAHARZEPEDZK208K 2100:00:2501:43:28.1001:43:53.50+00:15:507:238,1
22RAJCA Monika 3205PIOTRIMONIABIEGACHMIELNIKK209K 2200:00:0901:43:53.7001:44:02.90+00:16:007:258,1
23ZAJĄC Marzena 3269ŁĘCZNAK405K 2300:00:0501:46:01.6001:46:06.75+00:18:047:347,9
24HAFFKE Olga 3078CEKCYNK181K 2400:00:0301:46:13.2001:46:16.40+00:18:137:357,9
25STYKAŁA Adrianna 3231BUKOWIECK2010K 2500:00:0301:46:13.0001:46:16.50+00:18:137:357,9
26TOMCZYK Beata 3250VEGE RUNNERSWARSZAWAK3010K 2600:00:2201:46:45.4001:47:07.55+00:19:047:377,9
27MOŁDA Urszula 3162KIELCEK2011K 2700:00:1501:47:02.3001:47:18.10+00:19:157:387,8
28KORYSZKO Klaudia 3102WERBKOWICEK2012K 2800:00:0701:48:31.8501:48:39.15+00:20:367:457,7
29GAWLIK Justyna 3059KRAKÓWK2013K 2900:00:1101:49:14.3001:49:26.05+00:21:237:487,7
30KOTOWICZ Iwona 3277BOGUCHWALAK406K 3000:00:1101:50:16.5001:50:28.40+00:22:257:527,6
31DOBEK Halina 3038GORLICKA GRUPA BIEGOWAGORLICEK407K 3100:00:0601:50:49.7001:50:55.80+00:22:537:547,6
32KIJANKA Jadwiga 3294OSP ROKIETNICAROKIETNICAK3011K 3200:00:0401:51:09.4501:51:13.65+00:23:107:567,6
33SŁUPSKA Zuzanna 3226WARSZAWAK2014K 3300:00:3301:51:08.0501:51:41.20+00:23:387:567,6
34NIEMASZ Aleksandra 3169SKIBASPORT.PLKRYNICA ZDRÓJK2015K 3400:00:1701:51:40.4001:51:57.40+00:23:547:587,5
35PLISZKO Anna 3192AUGUSTÓWK408K 3500:00:1901:52:59.3001:53:19.00+00:25:168:047,4
36NOSARZEWSKA Klaudia 3171LASKIK2016K 3600:00:3301:53:41.4501:54:14.45+00:26:118:077,4
37MADEJ Weronika 3140KRAKÓWK2017K 3700:00:1201:55:36.4001:55:48.65+00:27:458:157,3
38BALAWEJDER Anna 3001KROSNOK409K 3800:00:1801:55:35.9501:55:54.20+00:27:518:157,3
39LIS Paulina 3129GLOGOVIA GLOGOW MAŁOPOLSKIGŁOGÓW MAŁOPOLSKIK3012K 3900:00:2801:55:26.2001:55:54.90+00:27:528:147,3
40PIOTROWSKA Anna 3190WARSZAWAK4010K 4000:00:1501:56:18.9001:56:34.00+00:28:318:187,2
41FOLTA Anita 3051GRUPA BIEGOWA ZARSZYNZARSZYNK501K 4100:00:0601:56:52.6001:56:59.00+00:28:568:207,2
42OCHYRA Karolina 3282LESKOK2018K 4200:00:0901:56:59.1001:57:08.40+00:29:058:217,2
43SUKIENNIK Anna 3234LIMANOWAK3013K 4300:00:2201:57:24.7001:57:47.35+00:29:448:237,2
44MASZOTA Estera 3154GDYNIAK3014K 4400:00:3301:57:28.4001:58:01.45+00:29:588:237,2
45KUBALA Alicja 3116KALISZK4011K 4500:00:0801:58:50.2501:58:58.85+00:30:568:297,1
46PIETRUSZKA Anna 3188KRAKÓWK3015K 4600:00:1501:58:45.8001:59:01.25+00:30:588:287,1
47BOBOWIK Barbara 3013WARSZAWAK3016K 4700:00:1501:58:59.5501:59:15.45+00:31:128:297,1
48RACZYŃSKA Natalia 3203SIEDLCEK2019K 4800:00:2001:59:27.0001:59:47.30+00:31:448:317,0
49WLACHOS Monika 3291RADOSNY DOM SENIORAŁÓDŹK4012K 4900:00:0502:01:22.7502:01:28.50+00:33:258:406,9
50MAGER Olga 3141RZESZÓWK4013K 5000:00:1402:02:16.1502:02:30.55+00:34:278:446,9
51KIERUZALSKA Małgorzata 3308CHEŁMK4014K 5100:00:2102:02:14.5502:02:36.25+00:34:338:436,9
52MORADEWICZ-PASZKO Ewa 3163CHEŁMK3017K 5200:00:2002:02:16.0502:02:36.45+00:34:338:446,9
53SZYMKIEWICZ Ewa 3244MIĘDZYRZECZK4015K 5300:00:0702:02:30.7502:02:38.40+00:34:358:456,9
54SLIWINSKA Katarzyna 3225RZESZÓWK4016K 5400:00:2002:02:20.0502:02:40.15+00:34:378:446,9
55MAKOWSKA Wanda 3147SUSZNOK502K 5500:00:1602:04:44.5502:05:01.20+00:36:588:546,7
56KUMOR Anna 3119KRAKÓWK3018K 5600:00:1902:04:47.3002:05:06.60+00:37:038:546,7
57BZDUŁA Bogumiła 3024KRZESZOWICEK4017K 5700:00:2102:04:49.3502:05:10.60+00:37:078:546,7
58KUŚ Małogrzata 3303KRAKÓWK4018K 5800:00:0302:06:52.0502:06:55.85+00:38:539:036,6
59BIELECKA Beata 3009TOMASZOWSKA GRUPA BIEGOWA/MORSY SPOD MŁYNATOMASZÓW LUBELSKIK4019K 5900:00:1102:06:50.4002:07:02.30+00:38:599:036,6
60HOŁUB Agata 3081JAROSŁAWSKI BIEGACZJAROSŁAWK503K 6000:00:1202:07:25.3002:07:37.95+00:39:359:066,6
61PIWOWARSKA Kinga 3191WARSZAWAK2020K 6100:00:0902:09:06.2002:09:15.80+00:41:139:136,5
62PRZYJEMSKA Dorota 3197PIGŻAK4020K 6200:00:0502:09:16.8502:09:22.20+00:41:199:146,5
63KAPUSTA-WESOŁOWSKA Marta 3087KKM KALORYFERKRAKÓWK4021K 6300:00:0902:09:26.6002:09:35.80+00:41:339:146,5
64TRAN Nhuyen 3251WARSAWK2021K 6400:00:4102:09:04.0002:09:45.10+00:41:429:136,5
65DUDA Justyna 3040GRODZISK MAZOWIECKIK3019K 6500:00:4102:09:07.3502:09:48.35+00:41:459:136,5
66LEWANDOWSKA Anna 3278UBEZPIECZENIA@KUPNAJLEPSZE.PLRZESZÓWK3020K 6600:00:0502:10:26.7502:10:32.70+00:42:309:196,4
67MATŁOSZ Ewa 3157STRZYŻÓWK4022K 6700:00:0502:10:57.4002:11:03.10+00:43:009:216,4
68PASZEK Krystyna 3183DOGOŃ GRODZISK MAZOWIECKIGRODZISK MAZK601K 6800:00:2402:11:29.9002:11:54.20+00:43:519:236,4
69KAMIŃSKA Patrycja 3086MAJDAN KRÓLEWSKIK3021K 6900:00:2502:11:49.6502:12:14.95+00:44:129:246,4
70KSIĄŻEK-BARCIK Ewa 3115RABKA-ZDRÓJK3022K 7000:00:2202:12:29.9502:12:52.10+00:44:499:276,3
71SERAFIN Monika 3220MARATOŃCZYK DĘBICAZAWIERZBIEK4023K 7100:00:0902:13:04.8002:13:14.25+00:45:119:306,3
72RYŻYŃSKA Agnieszka 3214CHEŁM BIEGACHEŁMK4024K 7200:00:2002:13:10.2002:13:30.85+00:45:289:306,3
73KRUPA Ewa 3111LIPINKIK2022K 7300:00:0702:13:53.8502:14:01.50+00:45:589:336,3
74CIEĆKIEWICZ Paulina 3032CIESZANÓWK2023K 7400:00:2302:13:44.6502:14:07.90+00:46:059:336,3
75NICIEJA Anna 3168KRAKOWK4025K 7500:00:1602:14:11.7502:14:28.70+00:46:269:356,3
76ŚLEMP Małgorzata 3246RZESZÓWK3023K 7600:00:3502:14:25.8502:15:00.95+00:46:589:366,2
77PRZYTARSKA Dominika 3198BIEGAMYREDAK2024K 7700:00:2102:15:27.3502:15:49.25+00:47:469:406,2
78OPALINSKA Malgorzata 3174RZESZÓWK3024K 7800:00:1902:15:37.8002:15:57.10+00:47:549:416,2
79KULA Milena 3118LUBLINK3025K 7900:00:1002:16:45.2502:16:55.50+00:48:529:466,1
80URBAN Paulina 3252LUBLINK2025K 8000:00:1102:16:57.1502:17:08.35+00:49:059:466,1
81KLISOWSKA Zofia 3302SZCZĘSNEK182K 8100:00:2902:18:43.7502:19:12.95+00:51:109:546,1
82LIPIŃSKA Beata 3128TYCZYNK4026K 8200:00:3002:18:47.6502:19:17.90+00:51:159:546,1
83SARNA Agata 3219WKURW_TEAMTYCZYNK4027K 8300:00:3002:18:47.9502:19:18.15+00:51:159:546,1
84PĘKALSKA Anna 3185NIEPORĘTK504K 8400:00:1302:19:08.9002:19:22.85+00:51:209:566,0
85KLISOWSKA Anna 3094SZCZĘSNEK4028K 8500:00:2902:18:57.3502:19:26.55+00:51:239:556,0
86HYBIŃSKA Joanna 3284LUBANK4029K 8600:00:0702:19:33.5502:19:40.55+00:51:379:586,0
87BUJNOWSKA Sylwia 3020MIĘDZYRZECZK4030K 8700:00:0702:19:33.0502:19:40.70+00:51:389:586,0
88TRACZ Agnieszka 3310STALOWA WOLAK3026K 8800:00:1502:21:11.2502:21:26.80+00:53:2410:055,9
89LEWANDOWSKA Edyta 3125MIŃSK MAZOWIECKIK2026K 8900:00:0402:21:37.2502:21:42.15+00:53:3910:065,9
90BĄK - SPALIŃSKA Magdalena 3002SANOKK3027K 9000:00:2702:21:37.5502:22:04.60+00:54:0110:065,9
91RAKOCZY Anna 3208SOSNOWIECK4031K 9100:00:1602:22:32.9502:22:49.35+00:54:4610:105,9
92FURMAN Agnieszka 3056OCHAJORUN & FRIENDSKRAKÓWK3028K 9200:00:3402:22:55.2002:23:29.20+00:55:2610:125,9
93DZIADCZYK Teresa 3043ZAKRZÓW TURAWSKIK4032K 9300:00:2602:27:33.8502:28:00.15+00:59:5710:325,7
94KOBOS Beata 3279KRAKÓWK3029K 9400:00:3602:27:35.6502:28:12.20+01:00:0910:325,7
95KIPER Elżbieta 3091JAROSŁAWSKI BIEGACZJAROSŁAWK3030K 9500:00:1302:28:38.6502:28:51.95+01:00:4910:375,7
96SZOŁTYSEK Beata 3238OCHAJORUN & FRIENDSRYBNIKK505K 9600:00:0802:30:14.0002:30:22.00+01:02:1910:435,6
97STYKAŁA Magdalena 3229BUKOWIECK4033K 9700:00:0602:31:53.5002:31:59.80+01:03:5710:505,5
98MAJER Katarzyna 3145SIEMIANOWICE ŚLĄSKIEK506K 9800:00:2102:34:22.6502:34:43.90+01:06:4111:015,4
99GRZEGORCZYK Dorota 3074ORANGE POLSKA SALUBLINK507K 9900:00:0602:39:41.7002:39:48.55+01:11:4511:245,3
100PYTEL Anna 3202IZBICKO W BIEGUOTMICEK4034K 10000:00:2802:45:55.7002:46:23.70+01:18:2111:515,1
101SZYPULSKA Katarzyna 3245SKS CHMIELOWICEOPOLEK4035K 10100:00:2802:46:05.2502:46:33.35+01:18:3011:515,1
102JĘDRZEJOWSKA-DEC Anna 3315GLIWICEK4036K 10200:00:3702:46:48.9002:47:26.20+01:19:2311:545,0
103WĄSOWSKA Jagoda 3316KS PEGAZ PIASECZNOPIASECZNOK508K 10300:00:3702:46:49.5002:47:26.50+01:19:2311:545,0
104BŁASZCZYK Magdalena 3012WARSZAWAK3031K 10400:00:2903:14:24.2503:14:53.45+01:46:5013:534,3
105KOLASIŃSKA Joanna 3099BYDGOSZCZK4037K 10500:00:1903:15:10.4503:15:29.75+01:47:2713:564,3
106HAFFKE Sylwia 3076CEKCYNK4038K 10600:00:3803:16:09.9003:16:47.95+01:48:4514:004,3
107HAFFKE Martyna 3079BYDGOSZCZK2027K 10700:00:3803:16:09.6503:16:48.00+01:48:4514:004,3
108POGORZELSKA Boguslawa 3194WIECZFNIA KOŚCIELNAK4039K 10800:00:1803:17:36.9503:17:55.25+01:49:5214:064,3
109KOŁEK-ZAJĄC Ewa 3100RZESZÓWK3032K 10900:00:4003:20:44.4003:21:24.40+01:53:2114:204,2
110LITWIN Joanna 3292DĘBICAK4040K 11000:00:2703:26:46.1503:27:13.35+01:59:1014:464,1
111KLIŚ Dominika 3096BIELSKO BIAŁAK3033K 11100:00:2703:26:46.1503:27:13.50+01:59:1014:464,1
112KAWA Anna 3088TARNÓWK3034K 11200:00:2803:26:45.5003:27:13.65+01:59:1014:464,1
113SOKOŁOWSKA Magdalena 3299PRUSZKÓWK4041K 11300:00:3203:30:01.6503:30:33.90+02:02:3115:004,0
114PACUŁA-CHWASTA Monika 3178NIZINYK4042K 11400:00:1603:34:20.0003:34:36.20+02:06:3315:183,9
115PAPROCKA Ewa 3181WARSZAWAK4043K 11500:00:3103:40:58.6003:41:29.95+02:13:2715:473,8
116KOLASA Anna 3098SII RUNNING TEAMJAROSŁAWK3035K 11600:00:3203:42:02.2003:42:34.20+02:14:3115:513,8
117SOKOŁOWSKA Agnieszka 3288RZESZÓWK2028K 11700:00:3203:42:04.2003:42:36.60+02:14:3315:513,8
118GRONCZEWSKA Agnieszka 3072ROLLINGWARSZAWAK4044K 11800:00:2503:47:00.3003:47:25.85+02:19:2316:123,7
119SKARBOWSKA Izabela 3221RAK'N'ROLLWARSZAWAK4045K 11900:00:2503:47:00.8503:47:26.40+02:19:2316:123,7
120ŁUGOWSKA Marta 3136RAK'N'ROLLWARSZAWAK3036K 12000:00:2603:47:02.8503:47:29.15+02:19:2616:133,7
121ŁUGOWSKA Bogusia 3137RAKNROLLWARSZAWAK602K 12100:00:2503:47:10.1503:47:35.20+02:19:3216:133,7
122ZIOŁA Sabina 3274WROCŁAWK4046K 12200:00:3603:47:14.8003:47:51.40+02:19:4816:133,7
123SZMIT Iwona 3237SMOLECK4047K 12300:00:3603:47:15.1503:47:51.70+02:19:4916:133,7
124GÓRKA Agnieszka 3068PIKULICEK4048K 12400:00:1403:54:27.3503:54:41.70+02:26:3916:443,6
125ŁYSEK Olga 3139WOJKOWICEK3037K 12500:00:1003:57:55.4503:58:06.00+02:30:0316:593,5
126EBERT Agata 3046BĘDZINK509K 12600:00:0503:59:22.1503:59:27.30+02:31:2417:053,5
127ZAŁĘSKA Renata 3270TBDRASZYNK4049K 12700:00:1304:27:32.5004:27:45.80+02:59:4319:063,1
128MICHAŁEK Sylwia 3158RAK'N'ROLLPIASECZNOK4050K 12800:00:2405:14:15.8505:14:40.20+03:46:3722:262,7
129ŁUCZAK Anna 3134RAK'N'ROLLMARIANÓWK4051K 12900:00:2405:14:20.9005:14:44.90+03:46:4222:272,7
Znaleziono 129 wynik(ów)